createdAt,value
2023-05-19T00:00:48.201Z,15.41
2023-05-19T00:01:53.463Z,15.40
2023-05-19T00:02:57.427Z,15.36
2023-05-19T00:04:03.748Z,15.36
2023-05-19T00:05:07.816Z,15.33
2023-05-19T00:06:11.147Z,15.32
2023-05-19T00:07:14.139Z,15.27
2023-05-19T00:08:17.745Z,15.22
2023-05-19T00:09:21.133Z,15.18
2023-05-19T00:10:24.559Z,15.18
2023-05-19T00:11:28.501Z,15.13
2023-05-19T00:12:31.801Z,15.10
2023-05-19T00:13:35.141Z,15.10
2023-05-19T00:14:38.300Z,15.10
2023-05-19T00:15:42.195Z,15.08
2023-05-19T00:16:46.215Z,15.06
2023-05-19T00:17:49.732Z,15.06
2023-05-19T00:18:54.128Z,15.06
2023-05-19T00:19:57.514Z,15.05
2023-05-19T00:21:00.666Z,15.02
2023-05-19T00:22:04.239Z,15.03
2023-05-19T00:23:07.632Z,15.01
2023-05-19T00:24:11.352Z,14.99
2023-05-19T00:25:15.088Z,14.98
2023-05-19T00:26:18.872Z,14.96
2023-05-19T00:27:32.030Z,14.97
2023-05-19T00:28:35.761Z,15.00
2023-05-19T00:29:39.642Z,14.97
2023-05-19T00:30:43.356Z,14.95
2023-05-19T00:31:46.783Z,14.93
2023-05-19T00:32:50.700Z,14.93
2023-05-19T00:33:54.408Z,14.92
2023-05-19T00:34:57.187Z,14.92
2023-05-19T00:36:04.396Z,14.93
2023-05-19T00:37:07.977Z,14.95
2023-05-19T00:38:11.592Z,14.99
2023-05-19T00:39:15.319Z,14.99
2023-05-19T00:40:18.669Z,14.95
2023-05-19T00:41:22.130Z,14.95
2023-05-19T00:42:25.973Z,14.92
2023-05-19T00:43:30.991Z,14.91
2023-05-19T00:44:34.927Z,14.90
2023-05-19T00:45:38.612Z,14.89
2023-05-19T00:46:42.501Z,14.86
2023-05-19T00:47:46.266Z,14.85
2023-05-19T00:48:49.997Z,14.84
2023-05-19T00:49:53.415Z,14.82
2023-05-19T00:51:02.594Z,14.83
2023-05-19T00:52:07.238Z,14.82
2023-05-19T00:53:10.901Z,14.81
2023-05-19T00:54:14.475Z,14.77
2023-05-19T00:55:17.897Z,14.74
2023-05-19T00:56:22.636Z,14.75
2023-05-19T00:57:27.472Z,14.76
2023-05-19T00:58:33.441Z,14.73
2023-05-19T00:59:37.703Z,14.73
2023-05-19T01:00:41.230Z,14.73
2023-05-19T01:01:49.911Z,14.69
2023-05-19T01:02:53.596Z,14.54
2023-05-19T01:03:59.731Z,14.46
2023-05-19T01:05:03.436Z,14.41
2023-05-19T01:06:07.084Z,14.40
2023-05-19T01:07:10.934Z,14.38
2023-05-19T01:08:14.317Z,14.37
2023-05-19T01:09:18.107Z,14.37
2023-05-19T01:10:21.987Z,14.38
2023-05-19T01:11:25.741Z,14.39
2023-05-19T01:12:29.346Z,14.41
2023-05-19T01:13:33.142Z,14.42
2023-05-19T01:14:36.858Z,14.46
2023-05-19T01:16:08.668Z,14.49
2023-05-19T01:17:41.853Z,14.51
2023-05-19T01:19:02.260Z,14.53
2023-05-19T01:20:07.581Z,14.55
2023-05-19T01:21:19.624Z,14.59
2023-05-19T01:22:29.517Z,14.62
2023-05-19T01:23:57.975Z,14.64
2023-05-19T01:25:16.334Z,14.66
2023-05-19T01:26:22.477Z,14.64
2023-05-19T01:27:36.513Z,14.63
2023-05-19T01:28:49.184Z,14.57
2023-05-19T01:30:11.586Z,14.51
2023-05-19T01:31:15.696Z,14.47
2023-05-19T01:32:20.078Z,14.46
2023-05-19T01:33:24.782Z,14.44
2023-05-19T01:34:29.036Z,14.40
2023-05-19T01:35:33.490Z,14.40
2023-05-19T01:36:37.337Z,14.40
2023-05-19T01:37:40.915Z,14.39
2023-05-19T01:38:46.788Z,14.41
2023-05-19T01:39:50.465Z,14.40
2023-05-19T01:40:54.176Z,14.40
2023-05-19T01:41:57.398Z,14.37
2023-05-19T01:43:01.691Z,14.34
2023-05-19T01:44:04.966Z,14.31
2023-05-19T01:45:12.025Z,14.31
2023-05-19T01:46:16.102Z,14.31
2023-05-19T01:47:20.003Z,14.28
2023-05-19T01:48:23.683Z,14.16
2023-05-19T01:49:27.126Z,14.07
2023-05-19T01:50:31.138Z,13.87
2023-05-19T01:51:34.801Z,13.85
2023-05-19T01:52:38.415Z,13.83
2023-05-19T01:53:41.542Z,13.82
2023-05-19T01:54:44.540Z,13.84
2023-05-19T01:55:50.158Z,13.87
2023-05-19T01:57:13.749Z,13.89
2023-05-19T01:58:39.522Z,13.88
2023-05-19T01:59:46.223Z,13.91
2023-05-19T02:00:58.345Z,13.90
2023-05-19T02:02:01.761Z,13.90
2023-05-19T02:03:32.475Z,13.89
2023-05-19T02:04:48.510Z,13.87
2023-05-19T02:06:10.332Z,13.85
2023-05-19T02:07:52.217Z,13.87
2023-05-19T02:09:28.539Z,13.85
2023-05-19T02:10:32.081Z,13.85
2023-05-19T02:12:20.694Z,13.88
2023-05-19T02:13:24.814Z,13.89
2023-05-19T02:14:35.240Z,13.87
2023-05-19T02:15:44.641Z,13.83
2023-05-19T02:16:48.766Z,13.84
2023-05-19T02:17:55.169Z,13.81
2023-05-19T02:19:00.453Z,13.78
2023-05-19T02:20:05.566Z,13.78
2023-05-19T02:21:14.056Z,13.72
2023-05-19T02:22:17.859Z,13.58
2023-05-19T02:23:21.482Z,13.50
2023-05-19T02:24:24.879Z,13.46
2023-05-19T02:25:28.263Z,13.42
2023-05-19T02:26:31.486Z,13.42
2023-05-19T02:27:38.689Z,13.42
2023-05-19T02:28:43.204Z,13.40
2023-05-19T02:29:46.914Z,13.42
2023-05-19T02:30:50.459Z,13.42
2023-05-19T02:31:53.582Z,13.40
2023-05-19T02:32:56.677Z,13.39
2023-05-19T02:34:00.639Z,13.38
2023-05-19T02:35:04.797Z,13.34
2023-05-19T02:36:09.544Z,13.32
2023-05-19T02:37:15.089Z,13.31
2023-05-19T02:38:18.605Z,13.25
2023-05-19T02:39:21.973Z,13.14
2023-05-19T02:40:25.314Z,13.11
2023-05-19T02:41:29.315Z,13.08
2023-05-19T02:42:32.810Z,13.07
2023-05-19T02:43:36.813Z,13.05
2023-05-19T02:44:40.508Z,13.03
2023-05-19T02:45:44.331Z,12.99
2023-05-19T02:46:47.808Z,12.87
2023-05-19T02:47:51.258Z,12.85
2023-05-19T02:48:54.967Z,12.82
2023-05-19T02:49:58.991Z,12.81
2023-05-19T02:51:02.616Z,12.78
2023-05-19T02:52:06.530Z,12.82
2023-05-19T02:53:10.554Z,12.84
2023-05-19T02:54:13.676Z,12.84
2023-05-19T02:55:18.591Z,12.86
2023-05-19T02:56:22.579Z,12.87
2023-05-19T02:57:27.237Z,12.87
2023-05-19T02:58:31.319Z,12.84
2023-05-19T02:59:34.917Z,12.83
2023-05-19T03:00:38.325Z,12.80
2023-05-19T03:01:42.000Z,12.80
2023-05-19T03:02:46.193Z,12.80
2023-05-19T03:03:50.013Z,12.79
2023-05-19T03:04:53.757Z,12.79
2023-05-19T03:05:57.215Z,12.83
2023-05-19T03:07:00.697Z,12.81
2023-05-19T03:08:04.005Z,12.67
2023-05-19T03:09:07.632Z,12.58
2023-05-19T03:10:11.584Z,12.51
2023-05-19T03:11:15.967Z,12.42
2023-05-19T03:12:19.371Z,12.29
2023-05-19T03:13:23.085Z,12.09
2023-05-19T03:14:26.419Z,12.10
2023-05-19T03:15:29.841Z,12.01
2023-05-19T03:16:33.337Z,11.88
2023-05-19T03:17:37.073Z,11.69
2023-05-19T03:18:40.440Z,11.57
2023-05-19T03:19:43.885Z,11.58
2023-05-19T03:20:47.006Z,11.64
2023-05-19T03:21:50.661Z,11.59
2023-05-19T03:22:54.322Z,11.60
2023-05-19T03:23:57.886Z,11.54
2023-05-19T03:25:01.129Z,11.46
2023-05-19T03:26:05.193Z,11.53
2023-05-19T03:27:08.324Z,11.55
2023-05-19T03:28:11.915Z,11.52
2023-05-19T03:29:15.749Z,11.45
2023-05-19T03:30:19.411Z,11.46
2023-05-19T03:31:41.220Z,11.45
2023-05-19T03:32:44.935Z,11.54
2023-05-19T03:33:48.532Z,11.61
2023-05-19T03:34:52.194Z,11.67
2023-05-19T03:35:55.938Z,11.69
2023-05-19T03:36:59.414Z,11.70
2023-05-19T03:38:02.830Z,11.80
2023-05-19T03:39:07.796Z,11.90
2023-05-19T03:40:12.699Z,11.92
2023-05-19T03:41:19.276Z,11.92
2023-05-19T03:42:23.186Z,11.88
2023-05-19T03:43:27.376Z,11.91
2023-05-19T03:44:38.359Z,11.89
2023-05-19T03:45:41.913Z,11.90
2023-05-19T03:47:07.820Z,11.84
2023-05-19T03:48:34.210Z,11.73
2023-05-19T03:50:05.594Z,11.70
2023-05-19T03:51:30.903Z,11.62
2023-05-19T03:52:54.571Z,11.54
2023-05-19T03:54:05.404Z,11.53
2023-05-19T03:55:09.578Z,11.55
2023-05-19T03:56:14.183Z,11.54
2023-05-19T03:57:17.876Z,11.51
2023-05-19T03:58:21.479Z,11.49
2023-05-19T03:59:25.272Z,11.47
2023-05-19T04:00:28.879Z,11.43
2023-05-19T04:01:32.316Z,11.42
2023-05-19T04:02:35.532Z,11.45
2023-05-19T04:03:39.175Z,11.46
2023-05-19T04:04:43.014Z,11.47
2023-05-19T04:05:47.322Z,11.53
2023-05-19T04:06:51.043Z,11.51
2023-05-19T04:07:54.601Z,11.51
2023-05-19T04:08:57.859Z,11.53
2023-05-19T04:10:01.508Z,11.55
2023-05-19T04:11:05.075Z,11.61
2023-05-19T04:12:09.181Z,11.60
2023-05-19T04:13:12.725Z,11.59
2023-05-19T04:14:16.598Z,11.59
2023-05-19T04:15:19.750Z,11.62
2023-05-19T04:16:23.403Z,11.64
2023-05-19T04:17:27.384Z,11.67
2023-05-19T04:18:31.254Z,11.69
2023-05-19T04:19:34.922Z,11.66
2023-05-19T04:20:38.429Z,11.69
2023-05-19T04:21:41.683Z,11.73
2023-05-19T04:22:45.151Z,11.77
2023-05-19T04:23:48.830Z,11.81
2023-05-19T04:24:53.576Z,11.80
2023-05-19T04:25:57.587Z,11.85
2023-05-19T04:27:05.705Z,11.83
2023-05-19T04:28:09.339Z,11.85
2023-05-19T04:29:14.486Z,11.85
2023-05-19T04:30:23.130Z,11.84
2023-05-19T04:31:28.396Z,11.84
2023-05-19T04:32:32.443Z,11.84
2023-05-19T04:33:37.040Z,11.85
2023-05-19T04:34:41.253Z,11.88
2023-05-19T04:35:45.389Z,11.88
2023-05-19T04:36:51.645Z,11.94
2023-05-19T04:37:58.129Z,11.98
2023-05-19T04:39:10.943Z,12.03
2023-05-19T04:40:18.259Z,12.09
2023-05-19T04:41:22.404Z,12.19
2023-05-19T04:42:26.600Z,12.25
2023-05-19T04:43:32.047Z,12.34
2023-05-19T04:44:37.072Z,12.37
2023-05-19T04:45:43.378Z,12.47
2023-05-19T04:46:48.633Z,12.47
2023-05-19T04:47:53.145Z,12.56
2023-05-19T04:48:57.668Z,12.63
2023-05-19T04:50:01.239Z,12.67
2023-05-19T04:51:05.920Z,12.75
2023-05-19T04:52:13.791Z,12.80
2023-05-19T04:53:17.930Z,12.83
2023-05-19T04:54:21.145Z,12.83
2023-05-19T04:55:25.114Z,12.84
2023-05-19T04:56:29.460Z,12.92
2023-05-19T04:57:33.655Z,12.93
2023-05-19T04:58:40.119Z,12.93
2023-05-19T04:59:45.241Z,13.01
2023-05-19T05:00:48.728Z,12.99
2023-05-19T05:01:52.925Z,12.93
2023-05-19T05:02:58.197Z,12.93
2023-05-19T05:04:03.941Z,12.92
2023-05-19T05:05:08.456Z,12.91
2023-05-19T05:06:12.685Z,12.89
2023-05-19T05:07:16.520Z,12.88
2023-05-19T05:08:23.950Z,12.90
2023-05-19T05:09:27.549Z,12.89
2023-05-19T05:10:33.233Z,12.86
2023-05-19T05:11:37.615Z,12.86
2023-05-19T05:12:41.604Z,12.85
2023-05-19T05:13:45.297Z,12.88
2023-05-19T05:14:50.173Z,12.91
2023-05-19T05:15:54.736Z,12.91
2023-05-19T05:16:59.137Z,12.89
2023-05-19T05:18:02.576Z,12.90
2023-05-19T05:19:06.597Z,12.95
2023-05-19T05:20:11.934Z,12.98
2023-05-19T05:21:15.653Z,12.98
2023-05-19T05:22:19.519Z,12.99
2023-05-19T05:23:23.047Z,13.02
2023-05-19T05:24:27.492Z,13.03
2023-05-19T05:25:35.297Z,13.03
2023-05-19T05:26:39.161Z,13.03
2023-05-19T05:27:42.475Z,13.09
2023-05-19T05:28:46.148Z,13.12
2023-05-19T05:29:50.608Z,13.15
2023-05-19T05:30:58.764Z,13.17
2023-05-19T05:32:02.533Z,13.20
2023-05-19T05:33:06.883Z,13.24
2023-05-19T05:34:14.231Z,13.27
2023-05-19T05:35:19.494Z,13.29
2023-05-19T05:36:23.826Z,13.35
2023-05-19T05:37:27.449Z,13.36
2023-05-19T05:38:31.468Z,13.42
2023-05-19T05:39:34.906Z,13.45
2023-05-19T05:40:38.308Z,13.49
2023-05-19T05:41:42.483Z,13.52
2023-05-19T05:42:47.880Z,13.52
2023-05-19T05:43:51.860Z,13.58
2023-05-19T05:44:55.236Z,13.61
2023-05-19T05:45:58.680Z,13.64
2023-05-19T05:47:04.001Z,13.69
2023-05-19T05:48:08.772Z,13.73
2023-05-19T05:49:13.886Z,13.77
2023-05-19T05:50:20.061Z,13.84
2023-05-19T05:51:24.294Z,13.93
2023-05-19T05:52:30.862Z,14.18
2023-05-19T05:53:38.358Z,14.59
2023-05-19T05:54:42.091Z,15.12
2023-05-19T05:55:47.108Z,15.76
2023-05-19T05:56:52.292Z,16.41
2023-05-19T05:57:57.806Z,17.04
2023-05-19T05:59:03.795Z,17.66
2023-05-19T06:00:16.276Z,18.28
2023-05-19T06:01:19.467Z,18.88
2023-05-19T06:02:23.282Z,19.35
2023-05-19T06:03:27.658Z,19.64
2023-05-19T06:04:33.915Z,20.00
2023-05-19T06:05:38.085Z,20.35
2023-05-19T06:06:41.644Z,20.72
2023-05-19T06:07:45.441Z,21.16
2023-05-19T06:08:52.200Z,21.61
2023-05-19T06:09:57.677Z,22.10
2023-05-19T06:11:01.809Z,22.56
2023-05-19T06:12:07.762Z,23.02
2023-05-19T06:13:20.007Z,23.52
2023-05-19T06:14:23.817Z,23.98
2023-05-19T06:15:51.895Z,24.50
2023-05-19T06:17:09.532Z,24.33
2023-05-19T06:18:13.391Z,24.24
2023-05-19T06:19:17.102Z,24.24
2023-05-19T06:20:21.453Z,24.53
2023-05-19T06:21:25.146Z,24.24
2023-05-19T06:22:29.114Z,23.86
2023-05-19T06:23:32.913Z,23.34
2023-05-19T06:24:38.743Z,23.40
2023-05-19T06:25:45.132Z,23.28
2023-05-19T06:26:49.219Z,24.14
2023-05-19T06:27:53.480Z,24.89
2023-05-19T06:28:58.411Z,25.53
2023-05-19T06:30:01.897Z,25.99
2023-05-19T06:31:08.790Z,26.33
2023-05-19T06:32:23.172Z,26.47
2023-05-19T06:33:29.093Z,26.09
2023-05-19T06:34:33.713Z,24.22
2023-05-19T06:35:37.102Z,25.20
2023-05-19T06:36:42.311Z,26.14
2023-05-19T06:37:46.813Z,26.59
2023-05-19T06:38:50.521Z,26.89
2023-05-19T06:39:54.219Z,27.46
2023-05-19T06:40:58.013Z,27.99
2023-05-19T06:42:01.934Z,28.50
2023-05-19T06:43:32.413Z,28.93
2023-05-19T06:44:39.347Z,29.32
2023-05-19T06:45:48.246Z,29.38
2023-05-19T06:46:51.387Z,29.23
2023-05-19T06:47:56.075Z,29.49
2023-05-19T06:48:59.641Z,29.68
2023-05-19T06:50:05.455Z,29.71
2023-05-19T06:51:11.779Z,29.67
2023-05-19T06:52:16.425Z,29.82
2023-05-19T06:53:20.524Z,29.96
2023-05-19T06:54:24.224Z,29.80
2023-05-19T06:55:27.667Z,29.81
2023-05-19T06:56:30.847Z,30.02
2023-05-19T06:57:34.419Z,30.43
2023-05-19T06:58:39.960Z,30.30
2023-05-19T06:59:44.062Z,29.91
2023-05-19T07:00:47.728Z,30.06
2023-05-19T07:01:53.069Z,30.62
2023-05-19T07:02:56.794Z,31.11
2023-05-19T07:04:01.121Z,31.59
2023-05-19T07:05:06.272Z,32.01
2023-05-19T07:06:10.617Z,32.25
2023-05-19T07:07:14.791Z,32.65
2023-05-19T07:08:19.160Z,32.81
2023-05-19T07:09:22.977Z,32.91
2023-05-19T07:10:29.995Z,33.33
2023-05-19T07:11:33.311Z,33.73
2023-05-19T07:12:36.461Z,33.71
2023-05-19T07:13:41.184Z,33.79
2023-05-19T07:14:44.794Z,34.11
2023-05-19T07:15:53.041Z,34.20
2023-05-19T07:16:56.353Z,34.19
2023-05-19T07:18:00.034Z,33.84
2023-05-19T07:19:03.761Z,33.07
2023-05-19T07:20:07.687Z,33.30
2023-05-19T07:21:11.547Z,33.61
2023-05-19T07:22:15.533Z,34.02
2023-05-19T07:23:18.993Z,33.50
2023-05-19T07:24:23.843Z,32.80
2023-05-19T07:25:29.302Z,32.82
2023-05-19T07:26:32.671Z,33.49
2023-05-19T07:27:35.731Z,33.97
2023-05-19T07:28:41.449Z,34.43
2023-05-19T07:29:45.087Z,34.63
2023-05-19T07:30:48.120Z,35.07
2023-05-19T07:31:55.083Z,35.54
2023-05-19T07:32:58.021Z,35.17
2023-05-19T07:34:01.684Z,34.52
2023-05-19T07:35:06.562Z,34.29
2023-05-19T07:36:10.367Z,35.00
2023-05-19T07:37:14.263Z,35.27
2023-05-19T07:38:17.629Z,35.61
2023-05-19T07:39:22.001Z,35.97
2023-05-19T07:40:25.681Z,36.23
2023-05-19T07:41:28.914Z,35.95
2023-05-19T07:42:32.601Z,35.52
2023-05-19T07:43:35.926Z,36.14
2023-05-19T07:44:39.594Z,36.37
2023-05-19T07:45:43.388Z,35.77
2023-05-19T07:46:47.165Z,34.82
2023-05-19T07:47:50.941Z,34.65
2023-05-19T07:48:54.645Z,34.80
2023-05-19T07:49:57.909Z,34.58
2023-05-19T07:51:01.306Z,34.71
2023-05-19T07:52:04.491Z,35.22
2023-05-19T07:53:08.437Z,35.52
2023-05-19T07:54:11.713Z,35.80
2023-05-19T07:55:15.909Z,36.27
2023-05-19T07:56:19.575Z,36.74
2023-05-19T07:57:22.981Z,37.01
2023-05-19T07:58:26.567Z,36.29
2023-05-19T07:59:29.824Z,36.52
2023-05-19T08:00:33.764Z,36.84
2023-05-19T08:01:37.187Z,35.96
2023-05-19T08:02:41.349Z,35.75
2023-05-19T08:03:45.010Z,35.95
2023-05-19T08:04:49.321Z,35.91
2023-05-19T08:05:52.942Z,36.19
2023-05-19T08:06:56.458Z,36.73
2023-05-19T08:07:59.788Z,37.23
2023-05-19T08:09:02.964Z,37.36
2023-05-19T08:10:07.123Z,37.33
2023-05-19T08:11:10.303Z,37.47
2023-05-19T08:12:13.959Z,38.02
2023-05-19T08:13:17.625Z,38.39
2023-05-19T08:14:23.352Z,38.60
2023-05-19T08:15:26.857Z,38.50
2023-05-19T08:16:30.220Z,38.36
2023-05-19T08:17:33.538Z,38.44
2023-05-19T08:18:37.081Z,38.56
2023-05-19T08:19:40.458Z,38.90
2023-05-19T08:20:43.968Z,39.30
2023-05-19T08:21:48.824Z,39.64
2023-05-19T08:22:52.467Z,39.03
2023-05-19T08:23:55.744Z,39.20
2023-05-19T08:24:58.685Z,39.28
2023-05-19T08:26:02.879Z,38.98
2023-05-19T08:27:07.887Z,38.69
2023-05-19T08:28:12.097Z,38.25
2023-05-19T08:29:15.534Z,38.17
2023-05-19T08:30:18.936Z,37.63
2023-05-19T08:31:23.062Z,37.74
2023-05-19T08:32:26.512Z,37.72
2023-05-19T08:33:29.997Z,37.64
2023-05-19T08:34:33.759Z,37.64
2023-05-19T08:35:37.356Z,37.88
2023-05-19T08:36:41.450Z,36.94
2023-05-19T08:37:45.283Z,37.16
2023-05-19T08:38:49.053Z,37.01
2023-05-19T08:39:52.165Z,37.68
2023-05-19T08:40:55.301Z,37.90
2023-05-19T08:41:58.266Z,37.43
2023-05-19T08:43:01.716Z,37.35
2023-05-19T08:44:06.076Z,37.76
2023-05-19T08:45:10.439Z,38.35
2023-05-19T08:46:15.481Z,38.76
2023-05-19T08:47:19.834Z,39.16
2023-05-19T08:48:22.993Z,38.86
2023-05-19T08:49:31.585Z,39.01
2023-05-19T08:50:37.127Z,39.15
2023-05-19T08:51:46.689Z,39.29
2023-05-19T08:53:05.327Z,39.52
2023-05-19T08:54:18.564Z,39.73
2023-05-19T08:55:29.001Z,40.29
2023-05-19T08:56:32.580Z,40.33
2023-05-19T08:57:37.302Z,40.11
2023-05-19T08:58:44.824Z,40.62
2023-05-19T08:59:49.842Z,41.16
2023-05-19T09:00:54.281Z,41.25
2023-05-19T09:01:57.925Z,41.17
2023-05-19T09:03:17.378Z,41.28
2023-05-19T09:04:21.653Z,41.68
2023-05-19T09:05:24.811Z,42.10
2023-05-19T09:06:28.261Z,42.04
2023-05-19T09:07:35.459Z,42.22
2023-05-19T09:08:38.888Z,42.29
2023-05-19T09:09:44.258Z,42.41
2023-05-19T09:10:47.346Z,42.61
2023-05-19T09:11:50.964Z,42.51
2023-05-19T09:12:54.478Z,42.72
2023-05-19T09:13:58.194Z,42.87
2023-05-19T09:15:02.927Z,42.90
2023-05-19T09:16:07.671Z,42.26
2023-05-19T09:17:11.511Z,41.25
2023-05-19T09:18:16.165Z,41.11
2023-05-19T09:19:21.684Z,40.94
2023-05-19T09:20:25.156Z,40.83
2023-05-19T09:21:31.663Z,40.75
2023-05-19T09:22:37.120Z,41.23
2023-05-19T09:23:40.759Z,41.00
2023-05-19T09:24:44.589Z,41.06
2023-05-19T09:25:49.537Z,41.28
2023-05-19T09:26:52.775Z,41.09
2023-05-19T09:27:56.210Z,40.69
2023-05-19T09:28:59.463Z,41.26
2023-05-19T09:30:12.282Z,41.51
2023-05-19T09:31:16.076Z,41.75
2023-05-19T09:32:26.162Z,42.02
2023-05-19T09:33:30.495Z,41.78
2023-05-19T09:34:34.092Z,42.01
2023-05-19T09:35:37.717Z,42.25
2023-05-19T09:36:43.263Z,42.66
2023-05-19T09:37:46.899Z,42.62
2023-05-19T09:38:50.022Z,42.75
2023-05-19T09:39:53.762Z,42.46
2023-05-19T09:40:58.225Z,42.43
2023-05-19T09:42:01.862Z,42.98
2023-05-19T09:43:06.856Z,43.37
2023-05-19T09:44:22.323Z,43.50
2023-05-19T09:45:27.841Z,43.38
2023-05-19T09:46:31.784Z,42.86
2023-05-19T09:47:41.303Z,41.94
2023-05-19T09:48:44.717Z,42.32
2023-05-19T09:49:48.791Z,42.62
2023-05-19T09:50:53.751Z,42.69
2023-05-19T09:52:00.861Z,43.14
2023-05-19T09:53:04.588Z,43.58
2023-05-19T09:54:11.357Z,44.01
2023-05-19T09:55:16.079Z,44.38
2023-05-19T09:56:24.560Z,44.05
2023-05-19T09:57:29.294Z,44.01
2023-05-19T09:58:38.009Z,44.06
2023-05-19T09:59:41.293Z,44.14
2023-05-19T10:00:44.442Z,44.39
2023-05-19T10:01:47.774Z,44.70
2023-05-19T10:02:51.736Z,44.84
2023-05-19T10:03:54.883Z,44.73
2023-05-19T10:04:58.546Z,43.79
2023-05-19T10:06:02.237Z,43.97
2023-05-19T10:07:06.557Z,44.14
2023-05-19T10:08:11.073Z,43.94
2023-05-19T10:09:14.314Z,43.63
2023-05-19T10:10:17.771Z,43.20
2023-05-19T10:11:22.561Z,42.71
2023-05-19T10:12:26.894Z,43.12
2023-05-19T10:13:30.831Z,42.95
2023-05-19T10:14:34.704Z,43.30
2023-05-19T10:15:50.031Z,43.42
2023-05-19T10:17:01.319Z,43.37
2023-05-19T10:18:05.225Z,43.54
2023-05-19T10:19:09.494Z,43.40
2023-05-19T10:20:15.032Z,43.29
2023-05-19T10:21:18.656Z,43.23
2023-05-19T10:22:22.264Z,43.05
2023-05-19T10:23:25.488Z,43.22
2023-05-19T10:24:28.773Z,43.50
2023-05-19T10:25:35.445Z,43.62
2023-05-19T10:26:40.026Z,42.90
2023-05-19T10:27:45.499Z,42.34
2023-05-19T10:28:49.373Z,42.75
2023-05-19T10:29:52.644Z,42.79
2023-05-19T10:30:57.713Z,42.79
2023-05-19T10:32:07.877Z,42.34
2023-05-19T10:33:13.848Z,42.18
2023-05-19T10:34:19.976Z,41.74
2023-05-19T10:35:50.240Z,41.72
2023-05-19T10:37:00.636Z,41.13
2023-05-19T10:38:25.860Z,40.03
2023-05-19T10:39:38.259Z,39.17
2023-05-19T10:40:59.986Z,38.04
2023-05-19T10:42:17.734Z,38.09
2023-05-19T10:43:46.399Z,35.32
2023-05-19T10:45:11.773Z,36.99
2023-05-19T10:46:15.221Z,37.41
2023-05-19T10:47:27.805Z,38.14
2023-05-19T10:48:34.248Z,37.92
2023-05-19T10:49:37.529Z,37.40
2023-05-19T10:50:40.639Z,38.35
2023-05-19T10:51:44.535Z,38.89
2023-05-19T10:52:57.155Z,39.25
2023-05-19T10:54:04.055Z,38.85
2023-05-19T10:55:16.649Z,39.53
2023-05-19T10:56:36.879Z,40.14
2023-05-19T10:57:39.868Z,39.32
2023-05-19T10:58:46.077Z,39.09
2023-05-19T10:59:50.461Z,39.19
2023-05-19T11:01:01.401Z,39.62
2023-05-19T11:02:08.222Z,39.68
2023-05-19T11:03:15.590Z,39.67
2023-05-19T11:04:20.061Z,40.30
2023-05-19T11:05:29.697Z,40.30
2023-05-19T11:06:36.631Z,40.62
2023-05-19T11:07:43.315Z,40.65
2023-05-19T11:08:48.394Z,40.88
2023-05-19T11:09:52.620Z,40.40
2023-05-19T11:10:56.220Z,40.46
2023-05-19T11:12:04.398Z,40.43
2023-05-19T11:13:07.791Z,40.22
2023-05-19T11:14:11.712Z,39.72
2023-05-19T11:15:15.318Z,39.38
2023-05-19T11:16:27.748Z,39.85
2023-05-19T11:17:32.238Z,40.00
2023-05-19T11:18:38.635Z,39.37
2023-05-19T11:19:43.317Z,38.58
2023-05-19T11:20:46.656Z,38.66
2023-05-19T11:21:55.899Z,37.86
2023-05-19T11:23:20.689Z,37.12
2023-05-19T11:24:40.464Z,37.65
2023-05-19T11:25:55.468Z,37.41
2023-05-19T11:26:59.059Z,36.89
2023-05-19T11:28:02.909Z,35.89
2023-05-19T11:29:06.644Z,36.98
2023-05-19T11:30:18.934Z,37.41
2023-05-19T11:31:23.528Z,37.02
2023-05-19T11:32:32.720Z,36.63
2023-05-19T11:33:36.345Z,36.74
2023-05-19T11:34:39.310Z,36.41
2023-05-19T11:35:43.667Z,36.12
2023-05-19T11:36:47.449Z,36.51
2023-05-19T11:37:53.605Z,37.08
2023-05-19T11:38:58.012Z,36.99
2023-05-19T11:40:08.869Z,36.57
2023-05-19T11:41:11.830Z,36.49
2023-05-19T11:42:15.671Z,36.01
2023-05-19T11:43:18.755Z,35.28
2023-05-19T11:44:21.925Z,35.45
2023-05-19T11:45:28.369Z,35.11
2023-05-19T11:46:33.070Z,35.12
2023-05-19T11:47:50.913Z,34.58
2023-05-19T11:48:59.846Z,34.06
2023-05-19T11:50:03.024Z,33.12
2023-05-19T11:51:07.368Z,32.55
2023-05-19T11:52:10.716Z,32.21
2023-05-19T11:53:14.496Z,32.66
2023-05-19T11:54:18.403Z,32.00
2023-05-19T11:55:26.168Z,31.25
2023-05-19T11:56:34.207Z,30.98
2023-05-19T11:57:37.264Z,30.33
2023-05-19T11:58:40.642Z,30.20
2023-05-19T11:59:48.609Z,30.01
2023-05-19T12:00:52.506Z,29.84
2023-05-19T12:01:55.864Z,29.80
2023-05-19T12:02:59.190Z,29.70
2023-05-19T12:04:02.807Z,29.46
2023-05-19T12:05:07.193Z,29.22
2023-05-19T12:06:11.508Z,28.70
2023-05-19T12:07:18.187Z,28.33
2023-05-19T12:08:22.429Z,28.44
2023-05-19T12:09:25.699Z,28.58
2023-05-19T12:10:30.799Z,28.20
2023-05-19T12:11:34.266Z,28.41
2023-05-19T12:12:37.719Z,28.05
2023-05-19T12:13:41.523Z,28.04
2023-05-19T12:14:45.602Z,27.85
2023-05-19T12:15:48.655Z,27.58
2023-05-19T12:16:51.876Z,27.28
2023-05-19T12:17:59.953Z,27.30
2023-05-19T12:19:06.055Z,27.02
2023-05-19T12:20:09.974Z,26.96
2023-05-19T12:21:13.385Z,26.65
2023-05-19T12:22:18.089Z,26.62
2023-05-19T12:23:21.792Z,26.63
2023-05-19T12:24:25.106Z,26.38
2023-05-19T12:25:29.801Z,26.46
2023-05-19T12:26:33.365Z,26.51
2023-05-19T12:27:37.923Z,26.32
2023-05-19T12:28:42.415Z,26.32
2023-05-19T12:29:53.845Z,26.17
2023-05-19T12:30:59.322Z,26.08
2023-05-19T12:32:03.640Z,25.94
2023-05-19T12:33:06.980Z,26.01
2023-05-19T12:34:10.900Z,26.06
2023-05-19T12:35:16.311Z,26.14
2023-05-19T12:36:20.309Z,26.23
2023-05-19T12:37:23.588Z,26.06
2023-05-19T12:38:26.618Z,26.05
2023-05-19T12:39:30.270Z,25.98
2023-05-19T12:40:37.888Z,25.57
2023-05-19T12:41:42.031Z,25.43
2023-05-19T12:42:46.172Z,25.34
2023-05-19T12:43:49.693Z,25.35
2023-05-19T12:44:53.665Z,25.36
2023-05-19T12:45:57.374Z,25.38
2023-05-19T12:47:01.113Z,25.33
2023-05-19T12:48:06.613Z,25.26
2023-05-19T12:49:10.487Z,25.22
2023-05-19T12:50:14.247Z,25.24
2023-05-19T12:51:20.674Z,25.21
2023-05-19T12:52:25.034Z,25.21
2023-05-19T12:53:28.830Z,25.18
2023-05-19T12:54:34.926Z,25.34
2023-05-19T12:55:42.160Z,25.41
2023-05-19T12:56:53.835Z,25.34
2023-05-19T12:58:00.313Z,25.46
2023-05-19T12:59:03.994Z,25.53
2023-05-19T13:00:10.719Z,25.50
2023-05-19T13:01:18.468Z,25.44
2023-05-19T13:02:22.281Z,25.45
2023-05-19T13:03:26.359Z,25.36
2023-05-19T13:04:29.659Z,25.34
2023-05-19T13:05:37.683Z,25.27
2023-05-19T13:06:42.700Z,25.09
2023-05-19T13:07:58.032Z,25.03
2023-05-19T13:09:01.034Z,24.89
2023-05-19T13:10:04.884Z,24.86
2023-05-19T13:11:08.397Z,24.92
2023-05-19T13:12:12.002Z,24.93
2023-05-19T13:13:15.461Z,24.90
2023-05-19T13:14:19.813Z,24.80
2023-05-19T13:15:24.697Z,24.75
2023-05-19T13:16:29.555Z,24.76
2023-05-19T13:17:32.844Z,24.75
2023-05-19T13:18:38.458Z,24.81
2023-05-19T13:19:42.037Z,24.78
2023-05-19T13:20:46.088Z,24.78
2023-05-19T13:21:51.142Z,24.80
2023-05-19T13:22:54.308Z,24.83
2023-05-19T13:23:57.840Z,24.93
2023-05-19T13:25:03.138Z,25.03
2023-05-19T13:26:07.354Z,25.08
2023-05-19T13:27:10.786Z,25.03
2023-05-19T13:28:14.515Z,24.89
2023-05-19T13:29:18.018Z,24.74
2023-05-19T13:30:22.079Z,24.74
2023-05-19T13:31:25.336Z,24.64
2023-05-19T13:32:28.619Z,24.58
2023-05-19T13:33:31.801Z,24.73
2023-05-19T13:34:35.101Z,24.74
2023-05-19T13:35:39.364Z,24.77
2023-05-19T13:36:43.640Z,24.85
2023-05-19T13:37:46.995Z,24.77
2023-05-19T13:38:50.604Z,24.72
2023-05-19T13:39:54.260Z,24.56
2023-05-19T13:40:57.815Z,24.43
2023-05-19T13:42:01.587Z,24.23
2023-05-19T13:43:05.539Z,24.28
2023-05-19T13:44:08.766Z,24.21
2023-05-19T13:45:11.947Z,24.27
2023-05-19T13:46:15.164Z,24.32
2023-05-19T13:47:19.199Z,24.30
2023-05-19T13:48:22.647Z,24.16
2023-05-19T13:49:26.071Z,24.22
2023-05-19T13:50:29.039Z,24.13
2023-05-19T13:51:32.729Z,24.23
2023-05-19T13:52:36.348Z,24.33
2023-05-19T13:53:40.401Z,24.34
2023-05-19T13:54:44.292Z,24.42
2023-05-19T13:55:48.382Z,24.44
2023-05-19T13:56:51.976Z,24.40
2023-05-19T13:57:55.343Z,24.32
2023-05-19T13:58:58.987Z,24.26
2023-05-19T14:00:04.154Z,24.09
2023-05-19T14:01:17.151Z,24.14
2023-05-19T14:02:21.045Z,24.20
2023-05-19T14:03:25.420Z,24.00
2023-05-19T14:04:29.272Z,23.98
2023-05-19T14:05:33.230Z,23.97